Time;durP1;ratioP1;P1;durP2;ratioP2;P2;SDS_P1;SDS_P2;PMS_P1;PMS_P2;Temp;Humidity;BMP_temperature;BMP_pressure;BME280_temperature;BME280_humidity;BME280_pressure;Samples;Min_cycle;Max_cycle;Signal;HPM_P1;HPM_P2
2022/07/21 00:01:03;;;;;;;4.32;2.08;;;20.30;99.90;;;;;;4999788;28;20140;-77
2022/07/21 00:03:29;;;;;;;8.85;3.08;;;20.20;99.90;;;;;;4999855;28;20040;-76
2022/07/21 00:05:54;;;;;;;4.72;3.45;;;20.20;99.90;;;;;;5000030;28;20041;-77
2022/07/21 00:08:20;;;;;;;5.65;3.08;;;20.20;99.90;;;;;;4999747;28;20049;-77
2022/07/21 00:10:46;;;;;;;7.60;3.58;;;20.30;99.90;;;;;;4999880;28;20440;-76
2022/07/21 00:13:13;;;;;;;7.55;3.13;;;20.30;99.90;;;;;;5017384;28;20053;-76
2022/07/21 00:15:39;;;;;;;4.80;2.85;;;20.30;99.90;;;;;;4999520;28;20057;-76
2022/07/21 00:18:07;;;;;;;6.28;2.97;;;20.30;99.90;;;;;;4999495;28;20053;-76
2022/07/21 00:20:33;;;;;;;3.72;2.50;;;20.20;99.90;;;;;;4999375;28;20053;-76
2022/07/21 00:22:59;;;;;;;5.18;2.78;;;20.20;99.90;;;;;;4999577;28;20041;-76
2022/07/21 00:25:25;;;;;;;7.30;3.08;;;20.20;99.90;;;;;;5015434;28;20045;-76
2022/07/21 00:27:51;;;;;;;6.03;2.90;;;20.10;99.90;;;;;;5015700;28;20041;-76
2022/07/21 00:30:17;;;;;;;3.97;2.92;;;20.10;99.90;;;;;;4999371;28;20037;-77
2022/07/21 00:32:43;;;;;;;5.13;2.70;;;20.10;99.90;;;;;;5015514;28;20045;-76
2022/07/21 00:35:10;;;;;;;9.15;2.97;;;20.00;99.90;;;;;;4999505;28;20137;-76
2022/07/21 00:37:36;;;;;;;9.00;2.97;;;20.00;99.90;;;;;;5015441;28;20124;-76
2022/07/21 00:40:04;;;;;;;6.28;3.20;;;19.90;99.90;;;;;;5015410;28;20053;-76
2022/07/21 00:42:32;;;;;;;5.47;3.35;;;19.90;99.90;;;;;;5015375;28;20041;-76
2022/07/21 00:44:58;;;;;;;7.10;3.55;;;19.80;99.90;;;;;;5015417;28;20120;-76
2022/07/21 00:47:27;;;;;;;6.68;3.17;;;19.80;99.90;;;;;;5015443;28;20045;-76
2022/07/21 00:49:54;;;;;;;4.72;2.42;;;19.80;99.90;;;;;;5015916;28;20059;-76
2022/07/21 00:52:20;;;;;;;6.68;2.97;;;19.70;99.90;;;;;;4998949;28;20041;-76
2022/07/21 00:54:47;;;;;;;6.65;3.65;;;19.60;99.90;;;;;;5015221;28;20102;-76
2022/07/21 00:57:14;;;;;;;5.75;3.55;;;19.60;99.90;;;;;;5015223;28;20053;-76
2022/07/21 00:59:40;;;;;;;6.10;3.22;;;19.50;99.90;;;;;;4999006;28;20401;-77
2022/07/21 01:02:07;;;;;;;7.80;3.70;;;19.50;99.90;;;;;;4982710;28;20052;-76
2022/07/21 01:04:33;;;;;;;4.28;3.13;;;19.40;99.90;;;;;;4998903;28;20045;-76
2022/07/21 01:07:01;;;;;;;8.95;3.95;;;19.40;99.90;;;;;;5015161;28;20087;-76
2022/07/21 01:09:28;;;;;;;5.97;3.50;;;19.40;99.90;;;;;;4999003;28;20136;-76
2022/07/21 01:11:53;;;;;;;7.35;4.13;;;19.30;99.90;;;;;;5015023;28;20191;-76
2022/07/21 01:14:19;;;;;;;5.90;4.10;;;19.20;99.90;;;;;;4999115;28;20072;-76
2022/07/21 01:16:45;;;;;;;7.40;4.07;;;19.20;99.90;;;;;;4982346;28;20061;-75
2022/07/21 01:19:12;;;;;;;9.00;4.00;;;19.10;99.90;;;;;;4982427;28;20045;-75
2022/07/21 01:21:40;;;;;;;5.88;4.05;;;19.10;99.90;;;;;;5015038;28;20047;-76
2022/07/21 01:24:06;;;;;;;10.07;4.38;;;19.00;99.90;;;;;;4998916;28;20041;-76
2022/07/21 01:26:41;;;;;;;8.90;3.97;;;19.00;99.90;;;;;;4998868;28;20034;-76
2022/07/21 01:29:08;;;;;;;12.07;4.63;;;18.90;99.90;;;;;;5014944;28;20044;-75
2022/07/21 01:31:34;;;;;;;7.43;3.88;;;18.90;99.90;;;;;;4998960;28;20042;-75
2022/07/21 01:34:00;;;;;;;7.13;3.88;;;18.90;99.90;;;;;;4982478;28;20052;-75
2022/07/21 01:36:26;;;;;;;9.88;4.05;;;18.90;99.90;;;;;;4984139;28;20369;-76
2022/07/21 01:41:35;;;;;;;6.18;3.75;;;18.80;99.90;;;;;;5005157;28;20045;-75
2022/07/21 01:44:04;;;;;;;7.03;4.38;;;18.80;99.90;;;;;;5002389;28;20052;-76
2022/07/21 01:46:33;;;;;;;6.18;4.20;;;18.80;99.90;;;;;;5002705;28;20503;-76
2022/07/21 01:48:59;;;;;;;6.82;4.43;;;18.70;99.90;;;;;;5002580;28;20062;-75
2022/07/21 01:51:25;;;;;;;6.05;3.78;;;18.70;99.90;;;;;;5002284;28;20049;-75
2022/07/21 01:53:52;;;;;;;10.73;4.28;;;18.70;99.90;;;;;;5018791;28;20037;-75
2022/07/21 01:56:23;;;;;;;8.52;4.32;;;18.70;99.90;;;;;;4985877;28;20041;-75
2022/07/21 01:58:51;;;;;;;7.35;3.92;;;18.60;99.90;;;;;;5002157;28;20045;-75
2022/07/21 02:01:17;;;;;;;5.30;3.78;;;18.60;99.90;;;;;;5002216;28;20457;-76
2022/07/21 02:03:44;;;;;;;6.40;4.15;;;18.60;99.90;;;;;;5018452;28;20064;-76
2022/07/21 02:06:10;;;;;;;5.72;4.18;;;18.60;99.90;;;;;;5002268;28;20120;-76
2022/07/21 02:08:36;;;;;;;6.05;3.97;;;18.60;99.90;;;;;;5018338;28;20041;-75
2022/07/21 02:11:04;;;;;;;5.65;3.88;;;18.60;99.90;;;;;;5001841;28;20386;-75
2022/07/21 02:13:29;;;;;;;7.43;4.53;;;18.60;99.90;;;;;;5018265;28;20049;-75
2022/07/21 02:15:55;;;;;;;9.77;4.25;;;18.60;99.90;;;;;;5001698;28;20527;-76
2022/07/21 02:18:21;;;;;;;8.32;4.40;;;18.60;99.90;;;;;;5018168;28;20049;-75
2022/07/21 02:20:47;;;;;;;7.15;4.00;;;18.60;99.90;;;;;;5001668;28;20042;-75
2022/07/21 02:23:17;;;;;;;7.05;4.18;;;18.60;99.90;;;;;;5018360;28;20044;-76
2022/07/21 02:25:44;;;;;;;7.63;4.77;;;18.50;99.90;;;;;;5018235;28;20135;-76
2022/07/21 02:28:10;;;;;;;6.47;3.58;;;18.50;99.90;;;;;;5017925;28;20049;-76
2022/07/21 02:30:36;;;;;;;10.23;4.55;;;18.50;99.90;;;;;;5001565;28;20038;-75
2022/07/21 02:33:02;;;;;;;8.27;4.70;;;18.50;99.90;;;;;;5018073;28;20397;-75
2022/07/21 02:35:27;;;;;;;8.10;4.72;;;18.60;99.90;;;;;;5001872;28;20048;-75
2022/07/21 02:37:53;;;;;;;7.10;4.72;;;18.60;99.90;;;;;;5017692;28;20607;-75
2022/07/21 02:40:19;;;;;;;8.68;4.75;;;18.60;99.90;;;;;;5001452;28;20037;-75
2022/07/21 02:42:47;;;;;;;6.13;4.03;;;18.60;99.90;;;;;;5001640;28;20034;-75
2022/07/21 02:45:13;;;;;;;7.15;4.72;;;18.60;99.90;;;;;;5001451;28;20493;-75
2022/07/21 02:48:07;;;;;;;6.60;5.18;;;18.60;99.90;;;;;;5000681;28;20048;-75
2022/07/21 02:50:35;;;;;;;8.10;5.13;;;18.50;99.90;;;;;;5017744;28;20505;-75
2022/07/21 02:53:05;;;;;;;9.20;4.68;;;18.60;99.90;;;;;;5017477;28;20068;-75
2022/07/21 02:55:34;;;;;;;7.30;4.43;;;18.60;99.90;;;;;;5001651;28;20076;-75
2022/07/21 02:58:16;;;;;;;6.85;4.50;;;18.60;99.90;;;;;;5000991;28;20042;-75
2022/07/21 03:00:54;;;;;;;7.53;4.97;;;18.60;99.90;;;;;;5000845;28;20049;-75
2022/07/21 03:03:23;;;;;;;6.28;4.28;;;18.60;99.90;;;;;;5001225;28;20393;-76
2022/07/21 03:05:49;;;;;;;10.73;4.65;;;18.50;99.90;;;;;;5017218;28;20049;-75
2022/07/21 03:08:15;;;;;;;5.63;4.05;;;18.50;99.90;;;;;;5017099;28;20041;-75
2022/07/21 03:10:41;;;;;;;9.40;4.90;;;18.50;99.90;;;;;;5017199;28;20045;-75
2022/07/21 03:13:07;;;;;;;10.02;4.38;;;18.50;99.90;;;;;;5016993;28;20045;-75
2022/07/21 03:15:34;;;;;;;8.13;4.47;;;18.50;99.90;;;;;;5017092;28;20061;-75
2022/07/21 03:18:00;;;;;;;9.98;4.07;;;18.50;99.90;;;;;;5017010;28;20049;-75
2022/07/21 03:20:28;;;;;;;7.70;4.93;;;18.50;99.90;;;;;;5000551;28;20048;-75
2022/07/21 03:22:54;;;;;;;8.18;4.82;;;18.50;99.90;;;;;;5017187;28;20498;-76
2022/07/21 03:25:20;;;;;;;8.70;4.70;;;18.50;99.90;;;;;;5017059;28;20033;-75
2022/07/21 03:27:47;;;;;;;9.45;4.43;;;18.50;99.90;;;;;;4984462;28;20120;-75
2022/07/21 03:30:13;;;;;;;6.38;4.38;;;18.50;99.90;;;;;;5016710;28;20041;-75
2022/07/21 03:32:39;;;;;;;7.65;4.18;;;18.50;99.90;;;;;;5016985;28;20111;-76
2022/07/21 03:35:06;;;;;;;8.65;4.78;;;18.50;99.90;;;;;;5000717;28;20041;-76
2022/07/21 03:37:32;;;;;;;6.53;3.95;;;18.50;99.90;;;;;;5000384;28;20463;-76
2022/07/21 03:39:58;;;;;;;6.45;4.00;;;18.50;99.90;;;;;;5016543;28;20045;-76
2022/07/21 03:42:24;;;;;;;6.03;4.07;;;18.50;99.90;;;;;;5000517;28;20045;-76
2022/07/21 03:44:50;;;;;;;8.02;4.80;;;18.50;99.90;;;;;;5000513;28;20469;-76
2022/07/21 03:47:16;;;;;;;6.00;4.68;;;18.50;99.90;;;;;;5016953;28;20120;-75
2022/07/21 03:49:42;;;;;;;8.20;4.32;;;18.40;99.90;;;;;;5000212;28;20511;-75
2022/07/21 03:52:08;;;;;;;7.57;5.22;;;18.40;99.90;;;;;;5000236;28;20048;-75
2022/07/21 03:54:34;;;;;;;7.63;4.60;;;18.50;99.90;;;;;;4999919;28;20045;-75
2022/07/21 03:56:59;;;;;;;7.40;4.82;;;18.50;99.90;;;;;;4983838;28;20041;-75
2022/07/21 03:59:25;;;;;;;11.20;5.20;;;18.50;99.90;;;;;;4999043;28;20481;-76
2022/07/21 04:01:54;;;;;;;6.53;4.97;;;18.50;99.90;;;;;;4983822;28;20124;-75
2022/07/21 04:04:19;;;;;;;7.72;4.25;;;18.50;99.90;;;;;;4984449;28;20041;-75
2022/07/21 04:06:46;;;;;;;10.65;5.25;;;18.50;99.90;;;;;;4983604;28;20064;-76
2022/07/21 04:09:11;;;;;;;5.13;4.07;;;18.50;99.90;;;;;;5000028;28;20046;-76
2022/07/21 04:11:37;;;;;;;8.00;4.85;;;18.50;99.90;;;;;;4983521;28;20041;-76
2022/07/21 04:14:03;;;;;;;9.43;5.03;;;18.50;99.90;;;;;;4999820;28;20060;-76
2022/07/21 04:16:28;;;;;;;12.00;5.22;;;18.50;99.90;;;;;;4999543;28;20049;-76
2022/07/21 04:18:54;;;;;;;7.50;5.18;;;18.50;99.90;;;;;;5015872;28;20052;-76
2022/07/21 04:21:20;;;;;;;7.22;4.55;;;18.50;99.90;;;;;;4983270;28;20099;-76
2022/07/21 04:23:45;;;;;;;7.10;5.18;;;18.50;99.90;;;;;;4999492;28;20496;-76
2022/07/21 04:26:11;;;;;;;11.20;5.45;;;18.50;99.90;;;;;;5015801;28;20091;-76
2022/07/21 04:28:37;;;;;;;8.88;5.25;;;18.50;99.90;;;;;;4999410;28;20042;-76
2022/07/21 04:31:03;;;;;;;10.18;5.65;;;18.50;99.90;;;;;;4999326;28;20445;-76
2022/07/21 04:33:28;;;;;;;9.65;4.95;;;18.50;99.90;;;;;;5000806;28;20045;-75
2022/07/21 04:35:54;;;;;;;8.27;5.60;;;18.50;99.90;;;;;;5015605;28;20416;-75
2022/07/21 04:38:20;;;;;;;12.00;6.45;;;18.50;99.90;;;;;;4983096;28;20128;-76
2022/07/21 04:40:45;;;;;;;11.65;7.00;;;18.50;99.90;;;;;;4982933;28;20057;-75
2022/07/21 04:43:11;;;;;;;14.43;7.40;;;18.60;99.90;;;;;;4999161;28;20464;-75
2022/07/21 04:45:37;;;;;;;10.63;6.38;;;18.60;99.90;;;;;;5015358;28;20037;-76
2022/07/21 04:48:03;;;;;;;11.70;7.32;;;18.60;99.90;;;;;;5015341;28;20048;-75
2022/07/21 04:50:29;;;;;;;11.18;6.82;;;18.60;99.90;;;;;;5015447;28;20047;-75
2022/07/21 04:52:55;;;;;;;13.57;7.55;;;18.60;99.90;;;;;;4998941;28;20120;-75
2022/07/21 04:55:22;;;;;;;12.50;7.55;;;18.70;99.90;;;;;;4982836;28;20041;-76
2022/07/21 04:57:50;;;;;;;11.93;7.47;;;18.70;99.90;;;;;;5015228;28;20041;-76
2022/07/21 05:00:19;;;;;;;13.43;8.07;;;18.70;99.90;;;;;;4998835;28;20049;-76
2022/07/21 05:02:46;;;;;;;11.88;7.50;;;18.70;99.90;;;;;;5015272;28;20071;-75
2022/07/21 05:05:12;;;;;;;11.70;7.70;;;18.70;99.90;;;;;;5015299;28;20037;-75
2022/07/21 05:07:38;;;;;;;13.73;7.95;;;18.80;99.90;;;;;;4982883;28;20041;-76
2022/07/21 05:10:09;;;;;;;13.68;8.63;;;18.70;99.90;;;;;;4982703;28;20114;-76
2022/07/21 05:12:35;;;;;;;13.73;9.05;;;18.80;99.90;;;;;;4998672;28;20378;-76
2022/07/21 05:15:02;;;;;;;15.70;9.30;;;18.80;99.90;;;;;;5015140;28;20044;-76
2022/07/21 05:17:28;;;;;;;16.13;8.48;;;18.80;99.90;;;;;;5015027;28;20064;-75
2022/07/21 05:19:53;;;;;;;17.17;9.70;;;18.80;99.90;;;;;;4998696;28;20038;-76
2022/07/21 05:22:19;;;;;;;17.38;9.77;;;18.80;99.90;;;;;;4982624;28;20146;-76
2022/07/21 05:24:45;;;;;;;16.35;10.45;;;18.90;99.90;;;;;;5015016;28;20033;-76
2022/07/21 05:27:11;;;;;;;13.70;9.23;;;18.90;99.90;;;;;;4982874;28;20042;-76
2022/07/21 05:29:37;;;;;;;13.85;9.50;;;18.90;99.90;;;;;;5015267;28;20049;-76
2022/07/21 05:32:03;;;;;;;12.23;8.70;;;19.00;99.90;;;;;;5015200;28;20056;-75
2022/07/21 05:34:28;;;;;;;12.77;8.75;;;19.00;99.90;;;;;;5014915;28;20049;-76
2022/07/21 05:36:54;;;;;;;11.63;8.52;;;18.90;99.90;;;;;;5015077;28;20045;-76
2022/07/21 05:39:20;;;;;;;14.30;9.48;;;19.00;99.90;;;;;;4998832;28;20130;-75
2022/07/21 05:41:46;;;;;;;15.65;8.48;;;19.00;99.90;;;;;;4998585;28;20037;-76
2022/07/21 05:44:11;;;;;;;17.35;9.48;;;19.00;99.90;;;;;;4998509;28;20041;-76
2022/07/21 05:46:37;;;;;;;14.48;9.52;;;19.10;99.90;;;;;;4998495;28;20038;-76
2022/07/21 05:49:03;;;;;;;13.88;10.15;;;19.10;99.90;;;;;;5014749;28;20091;-76
2022/07/21 05:51:28;;;;;;;16.50;10.15;;;19.10;99.90;;;;;;5014815;28;20052;-76
2022/07/21 05:53:54;;;;;;;15.65;10.80;;;19.20;99.90;;;;;;4998419;28;20048;-76
2022/07/21 05:56:20;;;;;;;18.80;10.93;;;19.30;99.90;;;;;;5014749;28;20408;-76
2022/07/21 05:58:45;;;;;;;16.23;10.95;;;19.30;99.90;;;;;;5014890;28;20049;-76
2022/07/21 06:01:16;;;;;;;14.18;10.30;;;19.30;99.90;;;;;;5014624;28;20041;-76
2022/07/21 06:03:50;;;;;;;18.27;10.70;;;19.40;99.90;;;;;;5014612;28;20060;-75
2022/07/21 06:06:18;;;;;;;18.33;11.50;;;19.50;99.90;;;;;;5014735;28;20535;-75
2022/07/21 06:08:46;;;;;;;19.40;11.18;;;19.60;99.90;;;;;;5014455;28;20054;-75
2022/07/21 06:11:15;;;;;;;15.35;9.95;;;19.60;99.90;;;;;;5014421;28;20046;-75
2022/07/21 06:13:41;;;;;;;17.27;11.63;;;19.70;99.90;;;;;;4998323;28;20050;-75
2022/07/21 06:16:07;;;;;;;16.50;10.63;;;19.70;99.90;;;;;;4981794;28;20132;-75
2022/07/21 06:18:33;;;;;;;20.30;12.02;;;19.70;99.90;;;;;;4998292;28;20410;-75
2022/07/21 06:20:59;;;;;;;18.35;11.55;;;19.60;99.90;;;;;;4998044;28;20128;-75
2022/07/21 06:23:25;;;;;;;16.73;11.40;;;19.60;99.90;;;;;;5017027;28;20084;-75
2022/07/21 06:25:52;;;;;;;18.48;12.02;;;19.60;99.90;;;;;;5001383;28;20040;-75
2022/07/21 06:28:18;;;;;;;17.08;11.52;;;19.60;99.90;;;;;;5018126;28;20563;-75
2022/07/21 06:30:44;;;;;;;16.67;11.45;;;19.50;99.90;;;;;;4985511;28;20595;-75
2022/07/21 06:33:13;;;;;;;15.15;11.10;;;19.50;99.90;;;;;;5017650;28;20124;-75
2022/07/21 06:35:39;;;;;;;17.05;10.68;;;19.50;99.90;;;;;;5017654;28;20048;-75
2022/07/21 06:38:05;;;;;;;16.75;10.63;;;19.50;99.90;;;;;;5019060;28;20038;-75
2022/07/21 06:40:31;;;;;;;16.63;10.98;;;19.50;99.90;;;;;;5001097;28;20041;-75
2022/07/21 06:42:57;;;;;;;16.10;11.13;;;19.50;99.90;;;;;;5017492;28;20045;-75
2022/07/21 06:45:24;;;;;;;20.13;11.20;;;19.50;99.90;;;;;;5002567;28;20065;-75
2022/07/21 06:47:50;;;;;;;17.23;10.75;;;19.50;99.90;;;;;;4985096;28;20044;-75
2022/07/21 06:50:16;;;;;;;21.48;12.20;;;19.50;99.90;;;;;;5001233;28;20042;-75
2022/07/21 06:52:42;;;;;;;16.10;10.27;;;19.50;99.90;;;;;;5001160;28;20045;-75
2022/07/21 06:55:08;;;;;;;16.17;10.77;;;19.40;99.90;;;;;;5001327;28;20397;-75
2022/07/21 06:57:35;;;;;;;17.77;10.23;;;19.40;99.90;;;;;;5017263;28;20121;-75
2022/07/21 07:00:05;;;;;;;18.35;10.57;;;19.30;99.90;;;;;;5017279;28;20072;-75
2022/07/21 07:02:31;;;;;;;18.98;10.23;;;19.30;99.90;;;;;;5017375;28;20073;-75
2022/07/21 07:04:57;;;;;;;15.60;10.68;;;19.20;99.90;;;;;;5017217;28;20048;-75
2022/07/21 07:07:23;;;;;;;12.80;9.23;;;19.20;99.90;;;;;;4984663;28;20503;-75
2022/07/21 07:09:48;;;;;;;14.73;10.02;;;19.20;99.90;;;;;;5017213;28;20115;-75
2022/07/21 07:12:14;;;;;;;16.10;9.90;;;19.20;99.90;;;;;;5017072;28;20045;-75
2022/07/21 07:14:40;;;;;;;11.77;8.35;;;19.20;99.90;;;;;;5017093;28;20385;-75
2022/07/21 07:17:06;;;;;;;15.10;10.32;;;19.20;99.90;;;;;;5000990;28;20473;-75
2022/07/21 07:19:31;;;;;;;14.00;9.38;;;19.20;99.90;;;;;;5017171;28;20108;-75
2022/07/21 07:21:58;;;;;;;15.98;9.88;;;19.30;99.90;;;;;;5000843;28;20029;-75
2022/07/21 07:24:24;;;;;;;18.77;9.30;;;19.30;99.90;;;;;;5000848;28;20041;-75
2022/07/21 07:26:49;;;;;;;16.83;10.32;;;19.40;99.90;;;;;;5016804;28;20136;-75
2022/07/21 07:29:15;;;;;;;16.33;9.88;;;19.50;99.90;;;;;;4984357;28;20044;-75
2022/07/21 07:31:41;;;;;;;13.82;10.40;;;19.50;99.90;;;;;;5016803;28;20138;-75
2022/07/21 07:34:07;;;;;;;11.80;8.13;;;19.60;99.90;;;;;;5016586;28;20520;-75
2022/07/21 07:36:34;;;;;;;13.98;8.82;;;19.60;99.90;;;;;;5000349;28;20124;-75
2022/07/21 07:39:01;;;;;;;14.23;9.38;;;19.70;99.90;;;;;;5000303;28;20037;-75
2022/07/21 07:41:28;;;;;;;14.68;9.55;;;19.70;99.90;;;;;;5016508;28;20099;-75
2022/07/21 07:43:54;;;;;;;13.45;9.20;;;19.70;99.90;;;;;;5017012;28;20488;-74
2022/07/21 07:46:20;;;;;;;13.85;10.13;;;19.80;99.90;;;;;;5000418;28;20099;-75
2022/07/21 07:48:47;;;;;;;16.77;10.63;;;19.80;99.90;;;;;;5000550;28;20033;-75
2022/07/21 07:51:13;;;;;;;17.95;10.10;;;19.80;99.90;;;;;;5016609;28;20049;-75
2022/07/21 07:53:40;;;;;;;18.95;10.85;;;19.80;99.90;;;;;;4983921;28;20052;-75
2022/07/21 07:56:06;;;;;;;14.40;10.15;;;19.80;99.90;;;;;;4999995;28;20078;-75
2022/07/21 07:58:32;;;;;;;15.75;10.30;;;19.90;99.90;;;;;;4999997;28;20045;-75
2022/07/21 08:00:58;;;;;;;16.98;11.32;;;19.90;99.90;;;;;;5016140;28;20110;-75
2022/07/21 08:03:25;;;;;;;16.33;10.55;;;19.90;99.90;;;;;;5000187;28;20489;-75
2022/07/21 08:05:53;;;;;;;14.50;10.48;;;20.00;99.90;;;;;;5016104;28;20041;-75
2022/07/21 08:08:19;;;;;;;18.23;9.93;;;20.10;99.90;;;;;;5016155;28;20045;-75
2022/07/21 08:10:45;;;;;;;18.10;10.77;;;20.10;99.90;;;;;;5016055;28;20045;-75
2022/07/21 08:13:16;;;;;;;20.30;12.27;;;20.20;99.90;;;;;;5016015;28;20115;-75
2022/07/21 08:15:42;;;;;;;;;;;20.30;99.90;;;;;;5016249;28;20072;-75
2022/07/21 08:18:08;;;;;;;20.30;12.07;;;20.40;99.90;;;;;;5000497;28;19916;-75
2022/07/21 08:20:35;;;;;;;18.38;11.75;;;20.60;99.90;;;;;;5015854;28;20041;-75
2022/07/21 08:23:00;;;;;;;20.27;12.07;;;20.80;99.90;;;;;;5015842;28;20033;-75
2022/07/21 08:25:26;;;;;;;22.00;11.85;;;21.10;99.90;;;;;;5015737;28;20099;-75
2022/07/21 08:27:52;;;;;;;18.25;10.55;;;21.40;99.90;;;;;;4999541;28;20136;-76
2022/07/21 08:30:18;;;;;;;17.25;11.68;;;21.60;99.90;;;;;;4999412;28;20132;-76
2022/07/21 08:32:44;;;;;;;18.75;10.98;;;21.80;99.90;;;;;;4983381;28;20404;-75
2022/07/21 08:35:11;;;;;;;16.58;10.15;;;22.00;99.90;;;;;;4999263;28;20087;-76
2022/07/21 08:37:38;;;;;;;16.05;10.18;;;22.20;99.90;;;;;;5015463;28;20045;-75
2022/07/21 08:40:06;;;;;;;17.08;10.45;;;22.30;99.90;;;;;;5015449;28;20080;-76
2022/07/21 08:42:31;;;;;;;14.95;10.48;;;22.40;99.90;;;;;;4999153;28;20041;-75
2022/07/21 08:44:57;;;;;;;14.27;9.32;;;22.40;99.90;;;;;;4998949;28;20370;-75
2022/07/21 08:47:25;;;;;;;15.18;9.55;;;22.40;99.90;;;;;;4999060;28;20042;-76
2022/07/21 08:49:51;;;;;;;19.17;9.85;;;22.40;99.90;;;;;;4999293;28;20511;-76
2022/07/21 08:52:18;;;;;;;15.35;9.35;;;22.40;99.90;;;;;;5015357;28;20049;-75
2022/07/21 08:54:44;;;;;;;15.32;9.43;;;22.40;99.90;;;;;;4999357;28;20128;-76
2022/07/21 08:57:10;;;;;;;13.38;8.68;;;22.60;99.90;;;;;;4999270;28;20497;-76
2022/07/21 08:59:36;;;;;;;12.93;9.35;;;22.80;99.90;;;;;;5015176;28;20092;-76
2022/07/21 09:02:03;;;;;;;15.60;9.02;;;22.80;99.90;;;;;;5015276;28;20053;-76
2022/07/21 09:04:32;;;;;;;16.00;8.48;;;22.90;99.90;;;;;;4982757;28;20043;-76
2022/07/21 09:07:04;;;;;;;15.07;8.90;;;22.80;99.90;;;;;;4999096;28;20378;-76
2022/07/21 09:09:31;;;;;;;14.38;8.70;;;22.80;99.90;;;;;;5015189;28;20045;-76
2022/07/21 09:11:58;;;;;;;11.38;8.63;;;22.80;99.90;;;;;;5015415;28;20049;-76
2022/07/21 09:14:28;;;;;;;10.75;7.63;;;22.90;99.90;;;;;;4982898;28;20072;-76
2022/07/21 09:17:00;;;;;;;13.38;7.53;;;22.90;99.90;;;;;;5014866;28;20057;-76
2022/07/21 09:19:31;;;;;;;16.52;8.85;;;23.10;99.90;;;;;;4998651;28;20044;-76
2022/07/21 09:21:59;;;;;;;14.07;9.27;;;23.10;99.90;;;;;;5015221;28;20038;-76
2022/07/21 09:24:38;;;;;;;12.63;8.30;;;23.10;99.90;;;;;;5015389;28;20087;-76
2022/07/21 09:27:03;;;;;;;14.80;8.48;;;23.10;99.90;;;;;;5016181;28;20045;-75
2022/07/21 09:29:40;;;;;;;14.45;8.18;;;23.00;99.90;;;;;;5015234;28;20045;-76
2022/07/21 09:32:27;;;;;;;14.60;7.85;;;23.00;99.90;;;;;;5014892;28;20033;-76
2022/07/21 09:34:57;;;;;;;13.85;7.20;;;23.10;99.90;;;;;;5015215;28;20057;-76
2022/07/21 09:37:27;;;;;;;;;;;23.20;99.90;;;;;;5015263;28;20057;-76
2022/07/21 09:39:59;;;;;;;10.85;6.38;;;23.40;99.90;;;;;;4998437;28;19925;-76
2022/07/21 09:42:35;;;;;;;11.18;6.80;;;23.40;99.90;;;;;;4998475;28;20091;-76
2022/07/21 09:45:07;;;;;;;10.38;6.65;;;23.50;99.90;;;;;;5014795;28;20042;-77
2022/07/21 09:47:39;;;;;;;9.70;6.10;;;23.50;99.90;;;;;;5014981;28;20091;-76
2022/07/21 09:50:08;;;;;;;11.10;7.20;;;23.50;99.90;;;;;;4999097;28;20087;-77
2022/07/21 09:52:38;;;;;;;12.50;7.57;;;23.40;99.90;;;;;;4998735;28;20511;-77
2022/07/21 09:55:09;;;;;;;13.02;6.65;;;23.40;99.90;;;;;;5014855;28;20448;-76
2022/07/21 09:57:36;;;;;;;9.10;6.53;;;23.40;99.90;;;;;;5001169;28;20144;-77
2022/07/21 10:00:07;;;;;;;9.57;5.80;;;23.50;99.90;;;;;;5002137;28;20052;-77
2022/07/21 10:02:34;;;;;;;11.00;7.35;;;23.80;99.90;;;;;;5018665;28;20038;-77
2022/07/21 10:05:04;;;;;;;10.63;7.15;;;23.90;99.90;;;;;;5002067;28;20077;-77
2022/07/21 10:07:31;;;;;;;12.35;7.38;;;24.00;99.90;;;;;;5018360;28;20041;-77
2022/07/21 10:09:57;;;;;;;13.25;7.90;;;23.90;99.90;;;;;;5018506;28;20519;-77
2022/07/21 10:12:25;;;;;;;13.43;7.35;;;23.80;99.90;;;;;;5018516;28;20240;-77
2022/07/21 10:14:51;;;;;;;11.35;7.30;;;23.70;99.90;;;;;;5018267;28;20094;-77
2022/07/21 10:17:19;;;;;;;13.82;7.93;;;23.60;99.90;;;;;;5001796;28;20053;-77
2022/07/21 10:20:23;;;;;;;13.05;7.32;;;23.40;99.90;;;;;;5018031;28;20085;-77
2022/07/21 10:23:14;;;;;;;12.88;7.68;;;23.40;99.90;;;;;;5002066;28;20393;-77
2022/07/21 10:25:40;;;;;;;;;;;23.40;99.90;;;;;;5002581;28;20041;-77
2022/07/21 10:28:23;;;;;;;13.57;7.38;;;23.30;99.90;;;;;;5018372;28;19921;-77
2022/07/21 10:30:51;;;;;;;12.65;7.35;;;23.10;99.90;;;;;;5018255;28;20099;-77
2022/07/21 10:33:19;;;;;;;15.80;8.73;;;23.00;99.90;;;;;;5001423;28;20448;-77
2022/07/21 10:35:47;;;;;;;15.82;8.43;;;22.80;99.90;;;;;;5018063;28;20554;-77
2022/07/21 10:38:27;;;;;;;15.55;7.38;;;22.60;99.90;;;;;;4985252;28;20037;-77
2022/07/21 10:40:58;;;;;;;10.52;6.82;;;22.50;99.90;;;;;;5001156;28;20136;-77
2022/07/21 10:43:24;;;;;;;11.68;7.57;;;22.30;99.90;;;;;;5017636;28;20091;-77
2022/07/21 10:45:50;;;;;;;15.98;9.40;;;22.20;99.90;;;;;;5017747;28;20041;-77
2022/07/21 10:48:41;;;;;;;17.65;9.82;;;22.10;99.90;;;;;;5001141;28;20108;-77
2022/07/21 10:51:10;;;;;;;17.63;11.30;;;21.90;99.90;;;;;;5008756;28;20512;-77
2022/07/21 10:53:37;;;;;;;14.95;10.50;;;21.80;99.90;;;;;;5017459;28;20041;-77
2022/07/21 10:56:04;;;;;;;16.70;10.95;;;21.70;99.90;;;;;;5001368;28;20053;-77
2022/07/21 10:58:31;;;;;;;19.10;10.75;;;21.60;99.90;;;;;;5017721;28;20137;-76
2022/07/21 11:01:01;;;;;;;18.80;11.55;;;21.50;99.90;;;;;;5017240;28;20132;-76
2022/07/21 11:03:30;;;;;;;19.13;11.00;;;21.40;99.90;;;;;;5001309;28;20570;-76
2022/07/21 11:06:24;;;;;;;20.83;11.95;;;21.40;99.90;;;;;;5017019;28;20049;-76
2022/07/21 11:09:06;;;;;;;20.85;11.93;;;21.40;99.90;;;;;;4984217;28;20033;-77
2022/07/21 11:11:33;;;;;;;20.23;12.27;;;21.30;99.90;;;;;;5017219;28;20046;-77
2022/07/21 11:14:09;;;;;;;22.95;11.93;;;21.30;99.90;;;;;;5017025;28;20042;-77
2022/07/21 11:19:31;;;;;;;19.02;11.55;;;21.30;99.90;;;;;;5017281;28;20140;-77
2022/07/21 11:21:59;;;;;;;17.85;10.95;;;21.40;99.90;;;;;;5017115;28;20049;-76
2022/07/21 11:24:26;;;;;;;27.48;12.80;;;21.40;99.90;;;;;;5017072;28;20132;-77
2022/07/21 11:26:57;;;;;;;19.05;11.73;;;21.50;99.90;;;;;;5001107;28;20041;-77
2022/07/21 11:29:22;;;;;;;;;;;21.50;99.90;;;;;;5017426;28;20045;-77
2022/07/21 11:31:49;;;;;;;23.85;12.65;;;21.60;99.90;;;;;;5016776;28;19917;-76
2022/07/21 11:34:15;;;;;;;22.30;11.23;;;21.70;99.90;;;;;;5017058;28;20136;-77
2022/07/21 11:36:40;;;;;;;22.42;12.07;;;21.70;99.90;;;;;;5016741;28;20120;-77
2022/07/21 11:39:11;;;;;;;21.33;12.40;;;21.80;99.90;;;;;;5000603;28;20087;-77
2022/07/21 11:41:40;;;;;;;19.38;11.07;;;21.90;99.90;;;;;;5016546;28;20048;-77
2022/07/21 11:44:07;;;;;;;19.10;10.48;;;22.00;99.90;;;;;;5016471;28;20041;-77
2022/07/21 11:47:00;;;;;;;19.30;10.82;;;22.00;99.90;;;;;;5000127;28;20076;-77
2022/07/21 11:49:26;;;;;;;20.67;10.73;;;22.20;99.90;;;;;;5000192;28;20045;-77
2022/07/21 11:51:56;;;;;;;21.20;11.98;;;22.20;99.90;;;;;;5000107;28;20041;-77
2022/07/21 11:54:43;;;;;;;21.42;11.65;;;22.30;99.90;;;;;;5016642;28;20128;-77
2022/07/21 11:57:09;;;;;;;16.63;10.40;;;22.40;99.90;;;;;;5016361;28;20091;-77
2022/07/21 11:59:36;;;;;;;16.48;9.70;;;22.40;99.90;;;;;;5000148;28;20037;-77
2022/07/21 12:02:11;;;;;;;17.95;10.65;;;22.60;99.90;;;;;;5016258;28;20046;-77
2022/07/21 12:04:59;;;;;;;17.92;10.65;;;22.60;99.90;;;;;;5000010;28;20531;-77
2022/07/21 12:07:43;;;;;;;18.38;10.35;;;22.70;99.90;;;;;;5016173;28;20095;-77
2022/07/21 12:10:23;;;;;;;18.02;10.60;;;22.80;99.90;;;;;;5016331;28;20485;-77
2022/07/21 12:12:49;;;;;;;20.20;11.15;;;22.90;99.90;;;;;;5016413;28;20092;-77
2022/07/21 12:15:18;;;;;;;17.35;11.43;;;22.90;99.90;;;;;;5015830;28;20038;-77
2022/07/21 12:17:45;;;;;;;20.23;10.85;;;23.00;99.90;;;;;;5015806;28;20049;-77
2022/07/21 12:20:12;;;;;;;18.30;11.00;;;23.00;99.90;;;;;;4998905;28;20049;-77
2022/07/21 12:22:46;;;;;;;17.70;9.18;;;22.90;99.90;;;;;;5015876;28;20120;-77
2022/07/21 12:25:17;;;;;;;16.48;8.60;;;22.90;99.90;;;;;;5016690;28;20043;-76
2022/07/21 12:27:45;;;;;;;14.10;8.27;;;22.70;99.90;;;;;;4999766;28;20513;-77
2022/07/21 12:30:39;;;;;;;13.63;7.85;;;22.70;99.90;;;;;;5015640;28;20077;-77
2022/07/21 12:33:14;;;;;;;13.23;7.20;;;22.60;99.90;;;;;;4983127;28;20045;-77
2022/07/21 12:35:48;;;;;;;10.02;6.28;;;22.50;99.90;;;;;;5015582;28;20041;-77
2022/07/21 12:38:15;;;;;;;12.32;7.00;;;22.60;99.90;;;;;;4999180;28;20045;-77
2022/07/21 12:40:55;;;;;;;12.85;6.88;;;22.60;99.90;;;;;;4999115;28;20041;-77
2022/07/21 12:43:21;;;;;;;14.60;8.70;;;22.60;99.90;;;;;;5015536;28;20037;-77
2022/07/21 12:45:59;;;;;;;15.43;7.63;;;22.60;99.90;;;;;;5015475;28;20284;-77
2022/07/21 12:48:27;;;;;;;12.93;8.23;;;22.70;99.90;;;;;;5015473;28;20041;-77